Terminal Aerodrome Forecast
Issued by NWS

Home | Current Version | Previous Version | Text Only | Print | Product List | Glossary On
Versions: 1 2 3 4 5 6 7 8 9 10 11 12 13 14 15 16 17
000
FTUS46 KSEW 271100
TAFBFI
TAF
KBFI 271120Z 2712/2812 00000KT P6SM -RA SCT028 OVC040
      TEMPO 2712/2715 4SM RA BR BKN028 OVC035
     FM271900 34006KT P6SM SCT025 BKN050
     FM272000 34008KT P6SM SCT025 BKN050
     FM280500 34007KT P6SM SCT050=

USA.gov is the U.S. government's official web portal to all federal, state and local government web resources and services.